sensor_id;sensor_type;location;lat;lon;timestamp;P1;durP1;ratioP1;P2;durP2;ratioP2
4278;SDS011;2153;47.744;10.580;2023-03-02T00:01:29;70.57;;;34.50;;
4278;SDS011;2153;47.744;10.580;2023-03-02T00:03:58;73.83;;;35.13;;
4278;SDS011;2153;47.744;10.580;2023-03-02T00:06:28;76.73;;;36.23;;
4278;SDS011;2153;47.744;10.580;2023-03-02T00:08:57;74.63;;;33.87;;
4278;SDS011;2153;47.744;10.580;2023-03-02T00:11:24;68.57;;;33.53;;
4278;SDS011;2153;47.744;10.580;2023-03-02T00:13:51;84.97;;;37.27;;
4278;SDS011;2153;47.744;10.580;2023-03-02T00:16:18;69.90;;;34.10;;
4278;SDS011;2153;47.744;10.580;2023-03-02T00:18:44;79.30;;;36.03;;
4278;SDS011;2153;47.744;10.580;2023-03-02T00:21:11;80.33;;;35.20;;
4278;SDS011;2153;47.744;10.580;2023-03-02T00:23:38;84.20;;;37.63;;
4278;SDS011;2153;47.744;10.580;2023-03-02T00:26:06;86.13;;;36.63;;
4278;SDS011;2153;47.744;10.580;2023-03-02T00:28:33;74.20;;;35.10;;
4278;SDS011;2153;47.744;10.580;2023-03-02T00:31:02;85.17;;;35.67;;
4278;SDS011;2153;47.744;10.580;2023-03-02T00:33:29;77.82;;;34.63;;
4278;SDS011;2153;47.744;10.580;2023-03-02T00:35:56;72.47;;;34.07;;
4278;SDS011;2153;47.744;10.580;2023-03-02T00:38:23;73.13;;;33.17;;
4278;SDS011;2153;47.744;10.580;2023-03-02T00:40:51;77.93;;;34.00;;
4278;SDS011;2153;47.744;10.580;2023-03-02T00:43:20;73.43;;;32.97;;
4278;SDS011;2153;47.744;10.580;2023-03-02T00:45:51;80.67;;;32.10;;
4278;SDS011;2153;47.744;10.580;2023-03-02T00:48:18;82.10;;;32.93;;
4278;SDS011;2153;47.744;10.580;2023-03-02T00:50:45;79.03;;;34.27;;
4278;SDS011;2153;47.744;10.580;2023-03-02T00:53:12;76.35;;;33.22;;
4278;SDS011;2153;47.744;10.580;2023-03-02T00:55:38;71.93;;;33.50;;
4278;SDS011;2153;47.744;10.580;2023-03-02T00:58:05;80.27;;;33.90;;
4278;SDS011;2153;47.744;10.580;2023-03-02T01:00:33;68.10;;;30.47;;
4278;SDS011;2153;47.744;10.580;2023-03-02T01:03:02;71.93;;;33.23;;
4278;SDS011;2153;47.744;10.580;2023-03-02T01:05:29;90.70;;;34.93;;
4278;SDS011;2153;47.744;10.580;2023-03-02T01:07:55;72.95;;;33.85;;
4278;SDS011;2153;47.744;10.580;2023-03-02T01:10:22;74.17;;;32.80;;
4278;SDS011;2153;47.744;10.580;2023-03-02T01:12:49;65.40;;;29.37;;
4278;SDS011;2153;47.744;10.580;2023-03-02T01:15:16;78.03;;;33.57;;
4278;SDS011;2153;47.744;10.580;2023-03-02T01:17:44;70.70;;;30.33;;
4278;SDS011;2153;47.744;10.580;2023-03-02T01:20:10;74.23;;;29.23;;
4278;SDS011;2153;47.744;10.580;2023-03-02T01:22:37;70.97;;;31.60;;
4278;SDS011;2153;47.744;10.580;2023-03-02T01:25:04;71.50;;;31.27;;
4278;SDS011;2153;47.744;10.580;2023-03-02T01:27:31;60.40;;;28.03;;
4278;SDS011;2153;47.744;10.580;2023-03-02T01:29:58;58.90;;;24.90;;
4278;SDS011;2153;47.744;10.580;2023-03-02T01:32:25;65.30;;;28.20;;
4278;SDS011;2153;47.744;10.580;2023-03-02T01:34:53;77.57;;;31.43;;
4278;SDS011;2153;47.744;10.580;2023-03-02T01:37:20;70.07;;;30.17;;
4278;SDS011;2153;47.744;10.580;2023-03-02T01:39:47;65.50;;;30.20;;
4278;SDS011;2153;47.744;10.580;2023-03-02T01:42:14;75.07;;;28.97;;
4278;SDS011;2153;47.744;10.580;2023-03-02T01:44:41;72.00;;;29.10;;
4278;SDS011;2153;47.744;10.580;2023-03-02T01:47:14;78.20;;;29.53;;
4278;SDS011;2153;47.744;10.580;2023-03-02T01:49:44;80.00;;;32.70;;
4278;SDS011;2153;47.744;10.580;2023-03-02T01:52:15;77.18;;;33.22;;
4278;SDS011;2153;47.744;10.580;2023-03-02T01:54:42;79.40;;;30.60;;
4278;SDS011;2153;47.744;10.580;2023-03-02T01:57:13;68.50;;;29.47;;
4278;SDS011;2153;47.744;10.580;2023-03-02T01:59:45;80.53;;;29.90;;
4278;SDS011;2153;47.744;10.580;2023-03-02T02:02:14;78.88;;;33.00;;
4278;SDS011;2153;47.744;10.580;2023-03-02T02:04:41;76.37;;;33.90;;
4278;SDS011;2153;47.744;10.580;2023-03-02T02:07:12;72.83;;;30.83;;
4278;SDS011;2153;47.744;10.580;2023-03-02T02:09:42;70.53;;;30.53;;
4278;SDS011;2153;47.744;10.580;2023-03-02T02:12:12;77.57;;;30.30;;
4278;SDS011;2153;47.744;10.580;2023-03-02T02:14:39;66.07;;;30.43;;
4278;SDS011;2153;47.744;10.580;2023-03-02T02:17:06;72.27;;;31.30;;
4278;SDS011;2153;47.744;10.580;2023-03-02T02:19:37;69.87;;;30.47;;
4278;SDS011;2153;47.744;10.580;2023-03-02T02:22:10;73.97;;;31.10;;
4278;SDS011;2153;47.744;10.580;2023-03-02T02:24:42;76.37;;;29.73;;
4278;SDS011;2153;47.744;10.580;2023-03-02T02:27:16;85.33;;;32.97;;
4278;SDS011;2153;47.744;10.580;2023-03-02T02:29:43;80.35;;;33.10;;
4278;SDS011;2153;47.744;10.580;2023-03-02T02:32:14;80.97;;;32.50;;
4278;SDS011;2153;47.744;10.580;2023-03-02T02:34:44;80.73;;;29.03;;
4278;SDS011;2153;47.744;10.580;2023-03-02T02:37:14;77.67;;;32.60;;
4278;SDS011;2153;47.744;10.580;2023-03-02T02:39:45;79.13;;;31.90;;
4278;SDS011;2153;47.744;10.580;2023-03-02T02:42:14;82.47;;;32.60;;
4278;SDS011;2153;47.744;10.580;2023-03-02T02:44:45;86.43;;;35.90;;
4278;SDS011;2153;47.744;10.580;2023-03-02T02:47:14;89.20;;;34.43;;
4278;SDS011;2153;47.744;10.580;2023-03-02T02:49:43;92.93;;;33.50;;
4278;SDS011;2153;47.744;10.580;2023-03-02T02:52:12;79.13;;;32.07;;
4278;SDS011;2153;47.744;10.580;2023-03-02T02:54:41;83.35;;;35.28;;
4278;SDS011;2153;47.744;10.580;2023-03-02T02:57:09;96.35;;;35.53;;
4278;SDS011;2153;47.744;10.580;2023-03-02T02:59:44;84.55;;;35.55;;
4278;SDS011;2153;47.744;10.580;2023-03-02T03:02:14;91.60;;;36.03;;
4278;SDS011;2153;47.744;10.580;2023-03-02T03:04:43;87.15;;;34.75;;
4278;SDS011;2153;47.744;10.580;2023-03-02T03:07:12;88.55;;;35.75;;
4278;SDS011;2153;47.744;10.580;2023-03-02T03:09:42;98.17;;;38.00;;
4278;SDS011;2153;47.744;10.580;2023-03-02T03:12:10;97.93;;;38.07;;
4278;SDS011;2153;47.744;10.580;2023-03-02T03:14:42;97.05;;;40.17;;
4278;SDS011;2153;47.744;10.580;2023-03-02T03:17:10;95.27;;;38.57;;
4278;SDS011;2153;47.744;10.580;2023-03-02T03:19:37;93.32;;;39.63;;
4278;SDS011;2153;47.744;10.580;2023-03-02T03:22:05;102.13;;;43.13;;
4278;SDS011;2153;47.744;10.580;2023-03-02T03:24:32;98.95;;;42.88;;
4278;SDS011;2153;47.744;10.580;2023-03-02T03:27:00;101.60;;;43.77;;
4278;SDS011;2153;47.744;10.580;2023-03-02T03:29:29;102.90;;;44.15;;
4278;SDS011;2153;47.744;10.580;2023-03-02T03:31:58;108.22;;;46.67;;
4278;SDS011;2153;47.744;10.580;2023-03-02T03:34:26;108.38;;;45.83;;
4278;SDS011;2153;47.744;10.580;2023-03-02T03:36:54;89.23;;;37.90;;
4278;SDS011;2153;47.744;10.580;2023-03-02T03:39:25;89.60;;;37.05;;
4278;SDS011;2153;47.744;10.580;2023-03-02T03:41:53;92.43;;;39.92;;
4278;SDS011;2153;47.744;10.580;2023-03-02T03:44:20;95.40;;;39.60;;
4278;SDS011;2153;47.744;10.580;2023-03-02T03:46:47;103.10;;;38.70;;
4278;SDS011;2153;47.744;10.580;2023-03-02T03:49:15;106.00;;;38.50;;
4278;SDS011;2153;47.744;10.580;2023-03-02T03:51:42;100.28;;;41.20;;
4278;SDS011;2153;47.744;10.580;2023-03-02T03:54:09;102.75;;;43.72;;
4278;SDS011;2153;47.744;10.580;2023-03-02T03:56:37;102.95;;;43.35;;
4278;SDS011;2153;47.744;10.580;2023-03-02T03:59:06;121.70;;;47.97;;
4278;SDS011;2153;47.744;10.580;2023-03-02T04:01:35;123.60;;;47.53;;
4278;SDS011;2153;47.744;10.580;2023-03-02T04:04:04;107.95;;;47.75;;
4278;SDS011;2153;47.744;10.580;2023-03-02T04:06:33;105.20;;;40.07;;
4278;SDS011;2153;47.744;10.580;2023-03-02T04:09:01;110.40;;;45.33;;
4278;SDS011;2153;47.744;10.580;2023-03-02T04:11:28;109.67;;;45.97;;
4278;SDS011;2153;47.744;10.580;2023-03-02T04:13:55;104.60;;;38.00;;
4278;SDS011;2153;47.744;10.580;2023-03-02T04:16:22;97.45;;;35.05;;
4278;SDS011;2153;47.744;10.580;2023-03-02T04:18:48;101.10;;;37.60;;
4278;SDS011;2153;47.744;10.580;2023-03-02T04:21:15;96.03;;;38.38;;
4278;SDS011;2153;47.744;10.580;2023-03-02T04:23:43;107.97;;;40.17;;
4278;SDS011;2153;47.744;10.580;2023-03-02T04:26:10;113.65;;;41.17;;
4278;SDS011;2153;47.744;10.580;2023-03-02T04:28:36;118.70;;;43.92;;
4278;SDS011;2153;47.744;10.580;2023-03-02T04:31:03;113.40;;;41.05;;
4278;SDS011;2153;47.744;10.580;2023-03-02T04:33:30;118.15;;;43.58;;
4278;SDS011;2153;47.744;10.580;2023-03-02T04:35:57;122.13;;;46.45;;
4278;SDS011;2153;47.744;10.580;2023-03-02T04:38:24;119.87;;;46.03;;
4278;SDS011;2153;47.744;10.580;2023-03-02T04:40:54;121.53;;;48.08;;
4278;SDS011;2153;47.744;10.580;2023-03-02T04:43:21;104.28;;;37.30;;
4278;SDS011;2153;47.744;10.580;2023-03-02T04:45:49;94.18;;;36.00;;
4278;SDS011;2153;47.744;10.580;2023-03-02T04:48:16;109.20;;;40.33;;
4278;SDS011;2153;47.744;10.580;2023-03-02T04:50:43;105.90;;;40.15;;
4278;SDS011;2153;47.744;10.580;2023-03-02T04:53:10;102.40;;;40.28;;
4278;SDS011;2153;47.744;10.580;2023-03-02T04:55:37;112.28;;;40.28;;
4278;SDS011;2153;47.744;10.580;2023-03-02T04:58:06;102.22;;;37.45;;
4278;SDS011;2153;47.744;10.580;2023-03-02T05:00:33;106.83;;;39.90;;
4278;SDS011;2153;47.744;10.580;2023-03-02T05:03:00;107.70;;;40.47;;
4278;SDS011;2153;47.744;10.580;2023-03-02T05:05:28;116.63;;;43.63;;
4278;SDS011;2153;47.744;10.580;2023-03-02T05:07:55;122.82;;;46.15;;
4278;SDS011;2153;47.744;10.580;2023-03-02T05:10:22;129.60;;;48.53;;
4278;SDS011;2153;47.744;10.580;2023-03-02T05:12:50;122.38;;;47.60;;
4278;SDS011;2153;47.744;10.580;2023-03-02T05:15:24;113.40;;;39.03;;
4278;SDS011;2153;47.744;10.580;2023-03-02T05:17:52;100.25;;;37.00;;
4278;SDS011;2153;47.744;10.580;2023-03-02T05:20:19;101.03;;;36.53;;
4278;SDS011;2153;47.744;10.580;2023-03-02T05:22:51;107.20;;;40.42;;
4278;SDS011;2153;47.744;10.580;2023-03-02T05:25:18;110.75;;;40.45;;
4278;SDS011;2153;47.744;10.580;2023-03-02T05:27:45;116.55;;;43.03;;
4278;SDS011;2153;47.744;10.580;2023-03-02T05:30:12;122.80;;;43.90;;
4278;SDS011;2153;47.744;10.580;2023-03-02T05:32:40;104.77;;;37.00;;
4278;SDS011;2153;47.744;10.580;2023-03-02T05:35:07;131.47;;;47.10;;
4278;SDS011;2153;47.744;10.580;2023-03-02T05:37:34;136.75;;;47.85;;
4278;SDS011;2153;47.744;10.580;2023-03-02T05:40:04;139.63;;;50.97;;
4278;SDS011;2153;47.744;10.580;2023-03-02T05:42:33;122.85;;;39.92;;
4278;SDS011;2153;47.744;10.580;2023-03-02T05:45:00;116.20;;;39.20;;
4278;SDS011;2153;47.744;10.580;2023-03-02T05:47:26;124.50;;;39.08;;
4278;SDS011;2153;47.744;10.580;2023-03-02T05:49:54;123.07;;;41.03;;
4278;SDS011;2153;47.744;10.580;2023-03-02T05:52:21;125.20;;;42.20;;
4278;SDS011;2153;47.744;10.580;2023-03-02T05:54:48;126.47;;;42.72;;
4278;SDS011;2153;47.744;10.580;2023-03-02T05:57:15;131.55;;;45.33;;
4278;SDS011;2153;47.744;10.580;2023-03-02T05:59:41;122.60;;;43.40;;
4278;SDS011;2153;47.744;10.580;2023-03-02T06:02:10;115.07;;;36.30;;
4278;SDS011;2153;47.744;10.580;2023-03-02T06:04:37;120.85;;;44.47;;
4278;SDS011;2153;47.744;10.580;2023-03-02T06:07:08;138.57;;;46.55;;
4278;SDS011;2153;47.744;10.580;2023-03-02T06:09:35;131.57;;;47.38;;
4278;SDS011;2153;47.744;10.580;2023-03-02T06:12:02;101.50;;;36.25;;
4278;SDS011;2153;47.744;10.580;2023-03-02T06:14:30;114.10;;;36.40;;
4278;SDS011;2153;47.744;10.580;2023-03-02T06:16:56;96.97;;;33.78;;
4278;SDS011;2153;47.744;10.580;2023-03-02T06:19:23;117.25;;;35.40;;
4278;SDS011;2153;47.744;10.580;2023-03-02T06:21:50;121.95;;;39.78;;
4278;SDS011;2153;47.744;10.580;2023-03-02T06:24:18;128.77;;;41.85;;
4278;SDS011;2153;47.744;10.580;2023-03-02T06:26:45;129.57;;;43.83;;
4278;SDS011;2153;47.744;10.580;2023-03-02T06:29:11;105.27;;;36.60;;
4278;SDS011;2153;47.744;10.580;2023-03-02T06:31:38;130.20;;;41.72;;
4278;SDS011;2153;47.744;10.580;2023-03-02T06:34:05;125.65;;;44.58;;
4278;SDS011;2153;47.744;10.580;2023-03-02T06:36:31;139.10;;;47.57;;
4278;SDS011;2153;47.744;10.580;2023-03-02T06:38:58;137.60;;;47.67;;
4278;SDS011;2153;47.744;10.580;2023-03-02T06:41:26;133.63;;;47.95;;
4278;SDS011;2153;47.744;10.580;2023-03-02T06:43:53;117.50;;;39.92;;
4278;SDS011;2153;47.744;10.580;2023-03-02T06:46:19;113.38;;;38.35;;
4278;SDS011;2153;47.744;10.580;2023-03-02T06:48:46;105.57;;;37.38;;
4278;SDS011;2153;47.744;10.580;2023-03-02T06:51:13;98.13;;;34.53;;
4278;SDS011;2153;47.744;10.580;2023-03-02T06:53:39;97.33;;;34.90;;
4278;SDS011;2153;47.744;10.580;2023-03-02T06:56:06;112.70;;;35.13;;
4278;SDS011;2153;47.744;10.580;2023-03-02T06:58:34;192.60;;;40.83;;
4278;SDS011;2153;47.744;10.580;2023-03-02T07:01:01;121.90;;;39.97;;
4278;SDS011;2153;47.744;10.580;2023-03-02T07:03:28;124.88;;;39.78;;
4278;SDS011;2153;47.744;10.580;2023-03-02T07:05:55;138.43;;;40.92;;
4278;SDS011;2153;47.744;10.580;2023-03-02T07:08:21;137.13;;;43.17;;
4278;SDS011;2153;47.744;10.580;2023-03-02T07:10:48;130.27;;;45.30;;
4278;SDS011;2153;47.744;10.580;2023-03-02T07:13:15;126.97;;;44.60;;
4278;SDS011;2153;47.744;10.580;2023-03-02T07:15:43;100.90;;;32.27;;
4278;SDS011;2153;47.744;10.580;2023-03-02T07:18:09;94.53;;;32.35;;
4278;SDS011;2153;47.744;10.580;2023-03-02T07:20:36;96.85;;;32.35;;
4278;SDS011;2153;47.744;10.580;2023-03-02T07:23:03;93.50;;;30.80;;
4278;SDS011;2153;47.744;10.580;2023-03-02T07:25:31;81.90;;;29.77;;
4278;SDS011;2153;47.744;10.580;2023-03-02T07:27:57;90.78;;;31.40;;
4278;SDS011;2153;47.744;10.580;2023-03-02T07:30:24;74.55;;;29.88;;
4278;SDS011;2153;47.744;10.580;2023-03-02T07:32:52;85.57;;;29.70;;
4278;SDS011;2153;47.744;10.580;2023-03-02T07:35:19;79.10;;;27.60;;
4278;SDS011;2153;47.744;10.580;2023-03-02T07:37:45;88.97;;;28.03;;
4278;SDS011;2153;47.744;10.580;2023-03-02T07:40:12;69.13;;;26.40;;
4278;SDS011;2153;47.744;10.580;2023-03-02T07:42:39;74.27;;;27.60;;
4278;SDS011;2153;47.744;10.580;2023-03-02T07:45:06;74.27;;;26.37;;
4278;SDS011;2153;47.744;10.580;2023-03-02T07:47:35;103.05;;;29.33;;
4278;SDS011;2153;47.744;10.580;2023-03-02T07:50:03;83.32;;;26.15;;
4278;SDS011;2153;47.744;10.580;2023-03-02T07:52:30;74.37;;;27.43;;
4278;SDS011;2153;47.744;10.580;2023-03-02T07:54:57;86.80;;;27.43;;
4278;SDS011;2153;47.744;10.580;2023-03-02T07:57:24;89.82;;;28.77;;
4278;SDS011;2153;47.744;10.580;2023-03-02T07:59:51;85.88;;;30.85;;
4278;SDS011;2153;47.744;10.580;2023-03-02T08:02:18;87.75;;;31.08;;
4278;SDS011;2153;47.744;10.580;2023-03-02T08:04:45;80.47;;;30.23;;
4278;SDS011;2153;47.744;10.580;2023-03-02T08:07:13;75.43;;;30.07;;
4278;SDS011;2153;47.744;10.580;2023-03-02T08:09:40;81.63;;;29.10;;
4278;SDS011;2153;47.744;10.580;2023-03-02T08:12:07;69.00;;;27.73;;
4278;SDS011;2153;47.744;10.580;2023-03-02T08:14:33;78.70;;;29.87;;
4278;SDS011;2153;47.744;10.580;2023-03-02T08:17:01;82.00;;;30.85;;
4278;SDS011;2153;47.744;10.580;2023-03-02T08:19:29;78.83;;;31.67;;
4278;SDS011;2153;47.744;10.580;2023-03-02T08:21:56;74.33;;;28.73;;
4278;SDS011;2153;47.744;10.580;2023-03-02T08:24:24;67.13;;;26.57;;
4278;SDS011;2153;47.744;10.580;2023-03-02T08:26:51;79.33;;;28.63;;
4278;SDS011;2153;47.744;10.580;2023-03-02T08:29:18;75.43;;;30.13;;
4278;SDS011;2153;47.744;10.580;2023-03-02T08:31:44;81.07;;;28.93;;
4278;SDS011;2153;47.744;10.580;2023-03-02T08:34:11;74.27;;;26.90;;
4278;SDS011;2153;47.744;10.580;2023-03-02T08:36:38;70.53;;;28.37;;
4278;SDS011;2153;47.744;10.580;2023-03-02T08:39:07;61.87;;;26.17;;
4278;SDS011;2153;47.744;10.580;2023-03-02T08:41:35;69.23;;;26.43;;
4278;SDS011;2153;47.744;10.580;2023-03-02T08:44:02;64.67;;;25.77;;
4278;SDS011;2153;47.744;10.580;2023-03-02T08:46:28;69.93;;;25.87;;
4278;SDS011;2153;47.744;10.580;2023-03-02T08:48:55;61.67;;;26.57;;
4278;SDS011;2153;47.744;10.580;2023-03-02T08:51:23;62.93;;;24.47;;
4278;SDS011;2153;47.744;10.580;2023-03-02T08:53:51;66.30;;;28.43;;
4278;SDS011;2153;47.744;10.580;2023-03-02T08:56:21;67.83;;;27.13;;
4278;SDS011;2153;47.744;10.580;2023-03-02T08:58:50;62.90;;;24.00;;
4278;SDS011;2153;47.744;10.580;2023-03-02T09:01:18;61.30;;;25.17;;
4278;SDS011;2153;47.744;10.580;2023-03-02T09:03:46;58.23;;;24.03;;
4278;SDS011;2153;47.744;10.580;2023-03-02T09:06:13;61.53;;;25.60;;
4278;SDS011;2153;47.744;10.580;2023-03-02T09:08:40;75.53;;;27.97;;
4278;SDS011;2153;47.744;10.580;2023-03-02T09:11:07;63.47;;;25.80;;
4278;SDS011;2153;47.744;10.580;2023-03-02T09:13:34;68.30;;;26.43;;
4278;SDS011;2153;47.744;10.580;2023-03-02T09:16:02;71.47;;;29.87;;
4278;SDS011;2153;47.744;10.580;2023-03-02T09:18:29;59.43;;;23.00;;
4278;SDS011;2153;47.744;10.580;2023-03-02T09:20:57;74.30;;;24.07;;
4278;SDS011;2153;47.744;10.580;2023-03-02T09:23:24;59.63;;;23.67;;
4278;SDS011;2153;47.744;10.580;2023-03-02T09:25:51;65.80;;;26.27;;
4278;SDS011;2153;47.744;10.580;2023-03-02T09:28:18;58.83;;;23.97;;
4278;SDS011;2153;47.744;10.580;2023-03-02T09:30:47;53.80;;;21.37;;
4278;SDS011;2153;47.744;10.580;2023-03-02T09:33:16;54.97;;;22.77;;
4278;SDS011;2153;47.744;10.580;2023-03-02T09:35:42;63.57;;;27.07;;
4278;SDS011;2153;47.744;10.580;2023-03-02T09:38:09;56.20;;;22.77;;
4278;SDS011;2153;47.744;10.580;2023-03-02T09:40:41;53.67;;;22.57;;
4278;SDS011;2153;47.744;10.580;2023-03-02T09:43:23;46.00;;;19.83;;
4278;SDS011;2153;47.744;10.580;2023-03-02T09:46:02;50.60;;;22.07;;
4278;SDS011;2153;47.744;10.580;2023-03-02T09:48:39;54.83;;;22.33;;
4278;SDS011;2153;47.744;10.580;2023-03-02T09:51:15;49.87;;;20.70;;
4278;SDS011;2153;47.744;10.580;2023-03-02T09:53:52;46.73;;;20.57;;
4278;SDS011;2153;47.744;10.580;2023-03-02T09:56:26;51.73;;;21.10;;
4278;SDS011;2153;47.744;10.580;2023-03-02T09:58:54;50.07;;;20.90;;
4278;SDS011;2153;47.744;10.580;2023-03-02T10:01:28;47.33;;;20.13;;
4278;SDS011;2153;47.744;10.580;2023-03-02T10:04:27;46.13;;;19.80;;
4278;SDS011;2153;47.744;10.580;2023-03-02T10:07:09;48.07;;;20.00;;
4278;SDS011;2153;47.744;10.580;2023-03-02T10:09:38;53.47;;;22.73;;
4278;SDS011;2153;47.744;10.580;2023-03-02T10:12:22;49.13;;;21.77;;
4278;SDS011;2153;47.744;10.580;2023-03-02T10:15:15;50.33;;;20.60;;
4278;SDS011;2153;47.744;10.580;2023-03-02T10:17:50;50.63;;;20.97;;
4278;SDS011;2153;47.744;10.580;2023-03-02T10:20:27;45.57;;;19.40;;
4278;SDS011;2153;47.744;10.580;2023-03-02T10:23:01;46.40;;;19.67;;
4278;SDS011;2153;47.744;10.580;2023-03-02T10:25:40;52.03;;;20.47;;
4278;SDS011;2153;47.744;10.580;2023-03-02T10:28:15;45.60;;;19.80;;
4278;SDS011;2153;47.744;10.580;2023-03-02T10:30:45;52.47;;;22.00;;
4278;SDS011;2153;47.744;10.580;2023-03-02T10:33:15;43.77;;;19.80;;
4278;SDS011;2153;47.744;10.580;2023-03-02T10:35:46;44.93;;;19.23;;
4278;SDS011;2153;47.744;10.580;2023-03-02T10:38:14;46.03;;;18.40;;
4278;SDS011;2153;47.744;10.580;2023-03-02T10:40:44;45.53;;;19.07;;
4278;SDS011;2153;47.744;10.580;2023-03-02T10:43:16;52.63;;;18.57;;
4278;SDS011;2153;47.744;10.580;2023-03-02T10:45:56;44.67;;;18.57;;
4278;SDS011;2153;47.744;10.580;2023-03-02T10:48:24;42.97;;;19.47;;
4278;SDS011;2153;47.744;10.580;2023-03-02T10:50:53;45.30;;;18.90;;
4278;SDS011;2153;47.744;10.580;2023-03-02T10:53:20;43.50;;;17.90;;
4278;SDS011;2153;47.744;10.580;2023-03-02T10:55:49;45.27;;;20.00;;
4278;SDS011;2153;47.744;10.580;2023-03-02T10:58:24;48.33;;;20.70;;
4278;SDS011;2153;47.744;10.580;2023-03-02T11:00:55;61.87;;;19.67;;
4278;SDS011;2153;47.744;10.580;2023-03-02T11:03:22;45.67;;;20.53;;
4278;SDS011;2153;47.744;10.580;2023-03-02T11:05:50;43.90;;;17.97;;
4278;SDS011;2153;47.744;10.580;2023-03-02T11:08:19;50.10;;;21.30;;
4278;SDS011;2153;47.744;10.580;2023-03-02T11:10:51;49.70;;;20.40;;
4278;SDS011;2153;47.744;10.580;2023-03-02T11:13:22;54.50;;;20.20;;
4278;SDS011;2153;47.744;10.580;2023-03-02T11:15:53;45.07;;;19.17;;
4278;SDS011;2153;47.744;10.580;2023-03-02T11:18:25;50.43;;;21.33;;
4278;SDS011;2153;47.744;10.580;2023-03-02T11:20:55;49.33;;;21.37;;
4278;SDS011;2153;47.744;10.580;2023-03-02T11:23:31;49.00;;;21.10;;
4278;SDS011;2153;47.744;10.580;2023-03-02T11:26:17;49.73;;;20.17;;
4278;SDS011;2153;47.744;10.580;2023-03-02T11:28:49;50.97;;;21.60;;
4278;SDS011;2153;47.744;10.580;2023-03-02T11:31:22;49.33;;;20.00;;
4278;SDS011;2153;47.744;10.580;2023-03-02T11:34:09;48.13;;;20.90;;
4278;SDS011;2153;47.744;10.580;2023-03-02T11:36:49;44.80;;;21.07;;
4278;SDS011;2153;47.744;10.580;2023-03-02T11:39:26;53.50;;;22.13;;
4278;SDS011;2153;47.744;10.580;2023-03-02T11:42:00;50.00;;;21.23;;
4278;SDS011;2153;47.744;10.580;2023-03-02T11:44:27;52.50;;;22.30;;
4278;SDS011;2153;47.744;10.580;2023-03-02T11:46:55;46.13;;;21.13;;
4278;SDS011;2153;47.744;10.580;2023-03-02T11:49:27;49.67;;;20.30;;
4278;SDS011;2153;47.744;10.580;2023-03-02T11:52:03;51.80;;;22.23;;
4278;SDS011;2153;47.744;10.580;2023-03-02T11:54:33;49.67;;;21.00;;
4278;SDS011;2153;47.744;10.580;2023-03-02T11:57:03;47.20;;;20.70;;
4278;SDS011;2153;47.744;10.580;2023-03-02T11:59:31;41.60;;;18.40;;
4278;SDS011;2153;47.744;10.580;2023-03-02T12:01:59;56.30;;;19.30;;
4278;SDS011;2153;47.744;10.580;2023-03-02T12:04:28;45.63;;;19.90;;
4278;SDS011;2153;47.744;10.580;2023-03-02T12:06:57;48.17;;;20.73;;
4278;SDS011;2153;47.744;10.580;2023-03-02T12:09:29;48.50;;;20.77;;
4278;SDS011;2153;47.744;10.580;2023-03-02T12:12:15;52.60;;;20.50;;
4278;SDS011;2153;47.744;10.580;2023-03-02T12:14:56;48.27;;;21.33;;
4278;SDS011;2153;47.744;10.580;2023-03-02T12:17:29;54.77;;;22.80;;
4278;SDS011;2153;47.744;10.580;2023-03-02T12:20:08;47.97;;;20.50;;
4278;SDS011;2153;47.744;10.580;2023-03-02T12:22:48;56.37;;;22.80;;
4278;SDS011;2153;47.744;10.580;2023-03-02T12:25:25;50.10;;;21.60;;
4278;SDS011;2153;47.744;10.580;2023-03-02T12:28:02;54.17;;;22.00;;
4278;SDS011;2153;47.744;10.580;2023-03-02T12:30:29;53.03;;;23.57;;
4278;SDS011;2153;47.744;10.580;2023-03-02T12:33:15;53.13;;;22.70;;
4278;SDS011;2153;47.744;10.580;2023-03-02T12:35:44;55.17;;;24.33;;
4278;SDS011;2153;47.744;10.580;2023-03-02T12:38:22;53.43;;;21.27;;
4278;SDS011;2153;47.744;10.580;2023-03-02T12:41:02;52.67;;;21.07;;
4278;SDS011;2153;47.744;10.580;2023-03-02T12:43:37;58.80;;;21.33;;
4278;SDS011;2153;47.744;10.580;2023-03-02T12:51:46;48.40;;;20.80;;
4278;SDS011;2153;47.744;10.580;2023-03-02T12:54:18;53.83;;;23.53;;
4278;SDS011;2153;47.744;10.580;2023-03-02T12:56:47;50.20;;;22.53;;
4278;SDS011;2153;47.744;10.580;2023-03-02T12:59:22;54.40;;;22.57;;
4278;SDS011;2153;47.744;10.580;2023-03-02T13:01:49;52.47;;;22.20;;
4278;SDS011;2153;47.744;10.580;2023-03-02T13:04:24;56.20;;;22.80;;
4278;SDS011;2153;47.744;10.580;2023-03-02T13:06:52;54.70;;;22.47;;
4278;SDS011;2153;47.744;10.580;2023-03-02T13:09:19;51.93;;;22.57;;
4278;SDS011;2153;47.744;10.580;2023-03-02T13:11:47;52.17;;;23.20;;
4278;SDS011;2153;47.744;10.580;2023-03-02T13:14:19;48.77;;;22.00;;
4278;SDS011;2153;47.744;10.580;2023-03-02T13:16:52;49.83;;;21.63;;
4278;SDS011;2153;47.744;10.580;2023-03-02T13:19:20;48.30;;;21.50;;
4278;SDS011;2153;47.744;10.580;2023-03-02T13:21:48;49.23;;;20.63;;
4278;SDS011;2153;47.744;10.580;2023-03-02T13:27:06;50.33;;;21.47;;
4278;SDS011;2153;47.744;10.580;2023-03-02T13:29:40;51.60;;;21.87;;
4278;SDS011;2153;47.744;10.580;2023-03-02T13:32:14;48.67;;;21.23;;
4278;SDS011;2153;47.744;10.580;2023-03-02T13:34:47;48.57;;;21.20;;
4278;SDS011;2153;47.744;10.580;2023-03-02T13:37:17;52.80;;;22.73;;
4278;SDS011;2153;47.744;10.580;2023-03-02T13:39:54;48.10;;;22.40;;
4278;SDS011;2153;47.744;10.580;2023-03-02T13:42:27;47.90;;;21.50;;
4278;SDS011;2153;47.744;10.580;2023-03-02T13:45:07;49.87;;;21.47;;
4278;SDS011;2153;47.744;10.580;2023-03-02T13:47:49;52.20;;;23.30;;
4278;SDS011;2153;47.744;10.580;2023-03-02T13:50:16;49.03;;;21.20;;
4278;SDS011;2153;47.744;10.580;2023-03-02T13:52:44;49.53;;;21.27;;
4278;SDS011;2153;47.744;10.580;2023-03-02T13:55:12;51.17;;;21.13;;
4278;SDS011;2153;47.744;10.580;2023-03-02T13:57:40;47.80;;;21.47;;
4278;SDS011;2153;47.744;10.580;2023-03-02T14:00:10;52.77;;;23.20;;
4278;SDS011;2153;47.744;10.580;2023-03-02T14:02:40;45.20;;;20.70;;
4278;SDS011;2153;47.744;10.580;2023-03-02T14:05:09;47.20;;;20.67;;
4278;SDS011;2153;47.744;10.580;2023-03-02T14:07:42;51.80;;;22.20;;
4278;SDS011;2153;47.744;10.580;2023-03-02T14:10:10;45.80;;;20.23;;
4278;SDS011;2153;47.744;10.580;2023-03-02T14:12:38;45.03;;;19.80;;
4278;SDS011;2153;47.744;10.580;2023-03-02T14:15:11;49.30;;;21.47;;
4278;SDS011;2153;47.744;10.580;2023-03-02T14:17:41;49.53;;;20.87;;
4278;SDS011;2153;47.744;10.580;2023-03-02T14:20:10;50.73;;;22.30;;
4278;SDS011;2153;47.744;10.580;2023-03-02T14:22:38;44.07;;;21.00;;
4278;SDS011;2153;47.744;10.580;2023-03-02T14:25:05;48.63;;;20.03;;
4278;SDS011;2153;47.744;10.580;2023-03-02T14:27:32;48.70;;;21.00;;
4278;SDS011;2153;47.744;10.580;2023-03-02T14:30:01;51.60;;;21.00;;
4278;SDS011;2153;47.744;10.580;2023-03-02T14:32:35;48.97;;;21.20;;
4278;SDS011;2153;47.744;10.580;2023-03-02T14:35:02;50.13;;;21.63;;
4278;SDS011;2153;47.744;10.580;2023-03-02T14:37:30;46.10;;;19.73;;
4278;SDS011;2153;47.744;10.580;2023-03-02T14:39:56;52.27;;;21.73;;
4278;SDS011;2153;47.744;10.580;2023-03-02T14:42:23;48.53;;;20.20;;
4278;SDS011;2153;47.744;10.580;2023-03-02T14:44:50;53.03;;;22.20;;
4278;SDS011;2153;47.744;10.580;2023-03-02T14:47:18;54.57;;;21.47;;
4278;SDS011;2153;47.744;10.580;2023-03-02T14:49:46;53.60;;;21.00;;
4278;SDS011;2153;47.744;10.580;2023-03-02T14:52:16;45.10;;;19.70;;